createdAt,value
2018-11-10T00:01:34.242Z,18.60
2018-11-10T00:04:02.432Z,18.37
2018-11-10T00:06:30.463Z,19.13
2018-11-10T00:08:58.532Z,18.33
2018-11-10T00:11:26.605Z,17.60
2018-11-10T00:13:54.652Z,18.40
2018-11-10T00:16:22.750Z,17.73
2018-11-10T00:18:50.820Z,19.83
2018-11-10T00:21:18.924Z,20.90
2018-11-10T00:23:47.047Z,20.77
2018-11-10T00:26:15.152Z,18.47
2018-11-10T00:28:43.312Z,18.77
2018-11-10T00:31:11.332Z,18.43
2018-11-10T00:33:39.453Z,19.20
2018-11-10T00:36:07.524Z,20.37
2018-11-10T00:38:35.595Z,20.63
2018-11-10T00:41:03.640Z,21.20
2018-11-10T00:43:32.020Z,19.90
2018-11-10T00:46:00.133Z,19.13
2018-11-10T00:48:28.197Z,19.43
2018-11-10T00:50:56.263Z,22.60
2018-11-10T00:53:24.413Z,19.47
2018-11-10T00:55:52.482Z,19.97
2018-11-10T00:58:20.693Z,20.20
2018-11-10T01:00:48.745Z,21.83
2018-11-10T01:03:16.834Z,19.67
2018-11-10T01:05:44.882Z,19.93
2018-11-10T01:08:12.950Z,20.63
2018-11-10T01:10:41.029Z,21.40
2018-11-10T01:13:09.138Z,20.20
2018-11-10T01:15:37.218Z,19.40
2018-11-10T01:18:05.483Z,19.50
2018-11-10T01:20:33.540Z,19.67
2018-11-10T01:23:01.582Z,20.57
2018-11-10T01:25:29.669Z,20.07
2018-11-10T01:27:57.901Z,19.67
2018-11-10T01:30:25.939Z,21.30
2018-11-10T01:32:54.028Z,19.43
2018-11-10T01:35:22.122Z,18.00
2018-11-10T01:37:50.262Z,20.87
2018-11-10T01:40:19.337Z,21.10
2018-11-10T01:42:48.477Z,20.83
2018-11-10T01:45:17.404Z,18.10
2018-11-10T01:47:46.025Z,17.30
2018-11-10T01:50:14.194Z,18.73
2018-11-10T01:52:42.651Z,19.13
2018-11-10T01:55:12.910Z,20.37
2018-11-10T01:57:41.685Z,19.40
2018-11-10T02:00:12.327Z,21.20
2018-11-10T02:02:40.389Z,18.60
2018-11-10T02:05:08.549Z,18.03
2018-11-10T02:07:36.631Z,16.87
2018-11-10T02:10:05.199Z,17.67
2018-11-10T02:12:33.374Z,17.63
2018-11-10T02:15:01.443Z,17.73
2018-11-10T02:17:29.535Z,19.57
2018-11-10T02:19:57.584Z,17.13
2018-11-10T02:22:25.741Z,17.87
2018-11-10T02:24:53.855Z,19.07
2018-11-10T02:27:23.056Z,17.63
2018-11-10T02:29:52.554Z,17.30
2018-11-10T02:32:20.709Z,18.17
2018-11-10T02:34:48.911Z,17.00
2018-11-10T02:37:17.036Z,18.80
2018-11-10T02:39:45.145Z,17.97
2018-11-10T02:42:13.282Z,17.67
2018-11-10T02:44:41.557Z,19.50
2018-11-10T02:47:09.651Z,17.77
2018-11-10T02:49:37.776Z,16.17
2018-11-10T02:52:05.840Z,17.20
2018-11-10T02:54:33.865Z,18.53
2018-11-10T02:57:01.940Z,17.73
2018-11-10T02:59:30.051Z,15.73
2018-11-10T03:01:58.084Z,17.47
2018-11-10T03:04:26.159Z,15.87
2018-11-10T03:06:54.270Z,17.43
2018-11-10T03:09:22.355Z,15.97
2018-11-10T03:11:50.387Z,18.60
2018-11-10T03:14:18.468Z,16.53
2018-11-10T03:16:46.526Z,18.40
2018-11-10T03:19:14.630Z,17.53
2018-11-10T03:21:42.717Z,17.27
2018-11-10T03:24:10.779Z,16.93
2018-11-10T03:26:38.810Z,16.53
2018-11-10T03:29:06.879Z,17.07
2018-11-10T03:31:34.968Z,16.37
2018-11-10T03:34:03.081Z,15.87
2018-11-10T03:36:31.218Z,16.23
2018-11-10T03:38:59.316Z,14.93
2018-11-10T03:41:27.381Z,17.20
2018-11-10T03:43:55.417Z,16.67
2018-11-10T03:46:25.420Z,18.43
2018-11-10T03:48:53.676Z,16.03
2018-11-10T03:51:21.672Z,15.50
2018-11-10T03:53:49.805Z,16.50
2018-11-10T03:56:17.823Z,17.03
2018-11-10T03:58:45.919Z,17.33
2018-11-10T04:01:13.984Z,17.27
2018-11-10T04:03:42.093Z,15.97
2018-11-10T04:06:10.126Z,17.27
2018-11-10T04:08:38.244Z,17.10
2018-11-10T04:11:06.399Z,15.70
2018-11-10T04:13:34.458Z,15.00
2018-11-10T04:16:02.530Z,15.73
2018-11-10T04:18:30.585Z,15.93
2018-11-10T04:20:58.648Z,16.40
2018-11-10T04:23:26.726Z,17.30
2018-11-10T04:25:54.841Z,16.93
2018-11-10T04:28:22.875Z,16.90
2018-11-10T04:30:50.991Z,17.93
2018-11-10T04:33:21.064Z,16.43
2018-11-10T04:35:49.162Z,15.07
2018-11-10T04:38:17.207Z,16.27
2018-11-10T04:40:45.287Z,18.00
2018-11-10T04:43:13.384Z,18.50
2018-11-10T04:45:41.456Z,16.27
2018-11-10T04:48:09.531Z,14.87
2018-11-10T04:50:37.555Z,17.00
2018-11-10T04:53:05.953Z,16.23
2018-11-10T04:55:34.052Z,15.33
2018-11-10T04:58:02.120Z,14.23
2018-11-10T05:00:30.177Z,15.83
2018-11-10T05:02:58.267Z,16.23
2018-11-10T05:05:26.336Z,14.97
2018-11-10T05:07:55.408Z,15.47
2018-11-10T05:10:25.530Z,15.03
2018-11-10T05:12:53.588Z,14.00
2018-11-10T05:15:21.704Z,15.03
2018-11-10T05:17:49.768Z,16.70
2018-11-10T05:20:17.860Z,14.00
2018-11-10T05:22:45.909Z,16.33
2018-11-10T05:25:13.975Z,14.33
2018-11-10T05:27:42.044Z,15.40
2018-11-10T05:30:10.530Z,14.43
2018-11-10T05:32:38.596Z,15.60
2018-11-10T05:35:07.390Z,16.10
2018-11-10T05:37:35.488Z,14.83
2018-11-10T05:40:03.900Z,14.80
2018-11-10T05:42:32.017Z,14.00
2018-11-10T05:45:00.095Z,13.63
2018-11-10T05:48:31.294Z,16.17
2018-11-10T05:50:59.396Z,14.83
2018-11-10T05:53:27.510Z,14.90
2018-11-10T05:55:55.551Z,15.20
2018-11-10T05:58:23.653Z,14.70
2018-11-10T06:00:51.695Z,13.67
2018-11-10T06:03:19.825Z,14.50
2018-11-10T06:05:48.876Z,14.73
2018-11-10T06:08:17.008Z,15.93
2018-11-10T06:10:45.115Z,14.90
2018-11-10T06:13:13.212Z,15.57
2018-11-10T06:15:41.252Z,13.70
2018-11-10T06:18:09.323Z,15.37
2018-11-10T06:20:38.289Z,13.83
2018-11-10T06:23:06.460Z,14.87
2018-11-10T06:25:34.570Z,13.37
2018-11-10T06:28:02.625Z,16.13
2018-11-10T06:30:30.723Z,14.37
2018-11-10T06:32:58.799Z,14.43
2018-11-10T06:35:26.869Z,13.37
2018-11-10T06:37:54.915Z,14.53
2018-11-10T06:40:22.987Z,16.40
2018-11-10T06:42:51.098Z,15.13
2018-11-10T06:45:19.132Z,14.60
2018-11-10T06:47:48.318Z,14.37
2018-11-10T06:50:16.432Z,15.63
2018-11-10T06:52:48.398Z,13.87
2018-11-10T06:55:24.117Z,14.83
2018-11-10T06:57:52.381Z,14.60
2018-11-10T07:00:20.535Z,16.03
2018-11-10T07:02:49.576Z,16.10
2018-11-10T07:05:17.668Z,15.57
2018-11-10T07:07:45.755Z,16.97
2018-11-10T07:10:13.802Z,15.07
2018-11-10T07:12:41.884Z,14.43
2018-11-10T07:15:10.032Z,15.10
2018-11-10T07:17:38.269Z,15.63
2018-11-10T07:20:06.728Z,14.43
2018-11-10T07:22:34.756Z,14.80
2018-11-10T07:25:02.999Z,14.60
2018-11-10T07:27:31.028Z,16.40
2018-11-10T07:29:59.089Z,15.30
2018-11-10T07:32:27.175Z,14.40
2018-11-10T07:34:55.237Z,15.83
2018-11-10T07:37:23.400Z,14.97
2018-11-10T07:39:51.385Z,15.57
2018-11-10T07:42:19.473Z,16.03
2018-11-10T07:44:47.540Z,15.03
2018-11-10T07:47:15.610Z,16.60
2018-11-10T07:49:43.694Z,14.87
2018-11-10T07:52:11.826Z,15.53
2018-11-10T07:54:39.982Z,14.43
2018-11-10T07:57:08.080Z,14.83
2018-11-10T07:59:36.236Z,14.53
2018-11-10T08:02:04.684Z,14.27
2018-11-10T08:04:32.763Z,15.23
2018-11-10T08:07:00.844Z,13.63
2018-11-10T08:09:28.955Z,14.77
2018-11-10T08:11:57.129Z,15.93
2018-11-10T08:14:25.106Z,14.80
2018-11-10T08:16:53.261Z,15.70
2018-11-10T08:19:22.379Z,14.70
2018-11-10T08:21:50.448Z,15.57
2018-11-10T08:24:18.553Z,16.20
2018-11-10T08:26:46.690Z,16.17
2018-11-10T08:29:14.800Z,14.37
2018-11-10T08:31:42.889Z,15.43
2018-11-10T08:34:11.094Z,15.97
2018-11-10T08:37:42.679Z,15.80
2018-11-10T08:40:13.104Z,15.20
2018-11-10T08:45:38.144Z,15.70
2018-11-10T08:48:09.245Z,15.90
2018-11-10T08:50:38.156Z,15.43
2018-11-10T08:53:06.351Z,17.00
2018-11-10T08:55:34.545Z,16.83
2018-11-10T08:58:04.942Z,15.27
2018-11-10T09:00:33.028Z,15.57
2018-11-10T09:03:05.835Z,15.67
2018-11-10T09:05:34.856Z,15.77
2018-11-10T09:08:04.146Z,16.50
2018-11-10T09:10:32.848Z,15.70
2018-11-10T09:13:01.013Z,15.63
2018-11-10T09:15:29.212Z,16.83
2018-11-10T09:17:57.400Z,16.63
2018-11-10T09:20:26.298Z,16.30
2018-11-10T09:22:55.846Z,17.03
2018-11-10T09:25:35.513Z,16.17
2018-11-10T09:28:05.120Z,15.60
2018-11-10T09:30:33.465Z,16.07
2018-11-10T09:33:01.608Z,16.90
2018-11-10T09:35:29.678Z,16.93
2018-11-10T09:37:58.591Z,18.87
2018-11-10T09:40:26.909Z,16.47
2018-11-10T09:42:55.044Z,15.40
2018-11-10T09:45:25.880Z,16.47
2018-11-10T09:47:54.782Z,17.07
2018-11-10T09:50:23.197Z,16.37
2018-11-10T09:52:51.342Z,16.67
2018-11-10T09:55:20.240Z,16.70
2018-11-10T09:57:48.406Z,16.90
2018-11-10T10:00:18.960Z,16.87
2018-11-10T10:02:47.456Z,16.10
2018-11-10T10:05:14.988Z,16.37
2018-11-10T10:07:43.646Z,14.20
2018-11-10T10:10:13.263Z,15.83
2018-11-10T10:12:41.836Z,16.60
2018-11-10T10:15:11.471Z,15.53
2018-11-10T10:17:40.148Z,15.50
2018-11-10T10:20:11.810Z,15.60
2018-11-10T10:22:39.859Z,15.17
2018-11-10T10:25:09.144Z,14.60
2018-11-10T10:27:37.428Z,13.37
2018-11-10T10:30:08.593Z,15.73
2018-11-10T10:32:36.682Z,14.97
2018-11-10T10:35:04.816Z,16.17
2018-11-10T10:37:32.737Z,13.83
2018-11-10T10:40:00.875Z,14.90
2018-11-10T10:42:28.920Z,14.13
2018-11-10T10:44:56.924Z,14.53
2018-11-10T10:47:25.257Z,14.63
2018-11-10T10:49:54.263Z,13.73
2018-11-10T10:52:22.299Z,13.83
2018-11-10T10:54:50.353Z,14.03
2018-11-10T10:57:18.401Z,12.97
2018-11-10T10:59:46.455Z,15.40
2018-11-10T11:02:19.949Z,14.70
2018-11-10T11:04:56.559Z,13.67
2018-11-10T11:07:25.958Z,15.17
2018-11-10T11:09:54.304Z,13.93
2018-11-10T11:12:22.939Z,13.83
2018-11-10T11:14:50.963Z,14.93
2018-11-10T11:17:18.972Z,14.97
2018-11-10T11:19:46.991Z,13.83
2018-11-10T11:22:15.010Z,14.07
2018-11-10T11:24:43.021Z,13.60
2018-11-10T11:27:11.107Z,14.60
2018-11-10T11:29:39.199Z,14.00
2018-11-10T11:32:07.143Z,14.30
2018-11-10T11:34:35.197Z,14.77
2018-11-10T11:37:03.176Z,13.60
2018-11-10T11:39:31.176Z,14.10
2018-11-10T11:41:59.231Z,13.37
2018-11-10T11:44:27.235Z,13.77
2018-11-10T11:46:55.279Z,13.37
2018-11-10T11:49:23.293Z,14.30
2018-11-10T11:51:51.341Z,13.30
2018-11-10T11:54:19.390Z,12.87
2018-11-10T11:56:47.438Z,12.67
2018-11-10T11:59:15.452Z,12.23
2018-11-10T12:01:43.496Z,13.23
2018-11-10T12:04:11.521Z,13.60
2018-11-10T12:06:39.603Z,13.13
2018-11-10T12:09:08.888Z,11.50
2018-11-10T12:11:36.902Z,12.30
2018-11-10T12:14:05.353Z,11.70
2018-11-10T12:16:33.374Z,13.27
2018-11-10T12:19:01.402Z,10.50
2018-11-10T12:21:29.424Z,11.33
2018-11-10T12:23:57.521Z,10.47
2018-11-10T12:27:28.897Z,11.10
2018-11-10T12:29:56.909Z,10.77
2018-11-10T12:32:24.971Z,10.70
2018-11-10T12:34:52.999Z,10.47
2018-11-10T12:37:21.012Z,10.33
2018-11-10T12:39:49.066Z,10.60
2018-11-10T12:42:17.084Z,10.50
2018-11-10T12:44:45.170Z,11.90
2018-11-10T12:47:13.186Z,10.87
2018-11-10T12:49:41.356Z,10.90
2018-11-10T12:52:09.391Z,11.37
2018-11-10T12:54:37.730Z,10.83
2018-11-10T12:57:06.059Z,10.30
2018-11-10T12:59:34.075Z,9.80
2018-11-10T13:02:02.110Z,9.83
2018-11-10T13:04:30.126Z,11.67
2018-11-10T13:06:58.153Z,10.47
2018-11-10T13:09:26.178Z,11.20
2018-11-10T13:11:54.343Z,10.53
2018-11-10T13:14:24.407Z,10.33
2018-11-10T13:16:52.618Z,10.30
2018-11-10T13:19:20.745Z,9.27
2018-11-10T13:21:48.840Z,11.00
2018-11-10T13:24:17.954Z,10.30
2018-11-10T13:26:45.905Z,10.50
2018-11-10T13:29:13.944Z,10.40
2018-11-10T13:31:42.160Z,10.07
2018-11-10T13:34:10.130Z,9.83
2018-11-10T13:36:38.139Z,9.87
2018-11-10T13:39:07.192Z,9.90
2018-11-10T13:41:35.231Z,11.17
2018-11-10T13:44:03.455Z,10.50
2018-11-10T13:46:31.392Z,9.50
2018-11-10T13:48:59.408Z,9.73
2018-11-10T13:51:27.700Z,9.27
2018-11-10T13:53:55.715Z,9.50
2018-11-10T13:56:23.775Z,9.80
2018-11-10T13:58:52.784Z,9.43
2018-11-10T14:01:20.827Z,9.13
2018-11-10T14:03:48.915Z,10.47
2018-11-10T14:06:16.969Z,9.30
2018-11-10T14:08:45.024Z,10.17
2018-11-10T14:11:13.060Z,10.20
2018-11-10T14:13:41.101Z,10.67
2018-11-10T14:16:09.157Z,10.07
2018-11-10T14:18:37.207Z,8.87
2018-11-10T14:21:05.369Z,9.57
2018-11-10T14:23:33.484Z,10.60
2018-11-10T14:26:01.543Z,10.37
2018-11-10T14:28:29.568Z,9.23
2018-11-10T14:30:57.679Z,10.03
2018-11-10T14:33:25.893Z,10.10
2018-11-10T14:35:53.936Z,9.13
2018-11-10T14:38:21.981Z,11.30
2018-11-10T14:40:50.007Z,10.10
2018-11-10T14:43:18.067Z,10.70
2018-11-10T14:45:46.105Z,9.37
2018-11-10T14:48:14.127Z,11.13
2018-11-10T14:50:42.154Z,11.33
2018-11-10T14:53:10.359Z,10.70
2018-11-10T14:55:38.260Z,11.53
2018-11-10T14:58:06.272Z,10.77
2018-11-10T15:00:34.338Z,10.43
2018-11-10T15:03:02.455Z,11.80
2018-11-10T15:05:30.581Z,10.73
2018-11-10T15:07:58.633Z,10.77
2018-11-10T15:10:26.674Z,11.37
2018-11-10T15:12:54.716Z,12.00
2018-11-10T15:15:22.759Z,11.37
2018-11-10T15:17:50.902Z,12.07
2018-11-10T15:20:19.548Z,11.57
2018-11-10T15:22:47.676Z,12.97
2018-11-10T15:25:17.196Z,10.47
2018-11-10T15:27:45.190Z,12.63
2018-11-10T15:30:14.505Z,11.20
2018-11-10T15:32:43.517Z,11.60
2018-11-10T15:35:13.120Z,12.07
2018-11-10T15:37:42.017Z,12.13
2018-11-10T15:40:11.304Z,12.53
2018-11-10T15:42:39.357Z,12.33
2018-11-10T15:45:08.292Z,12.43
2018-11-10T15:47:36.335Z,10.83
2018-11-10T15:50:05.164Z,12.53
2018-11-10T15:52:33.244Z,12.70
2018-11-10T15:55:01.302Z,11.57
2018-11-10T15:57:29.375Z,12.10
2018-11-10T15:59:57.431Z,12.50
2018-11-10T16:02:25.474Z,12.13
2018-11-10T16:04:53.502Z,12.67
2018-11-10T16:07:21.558Z,12.00
2018-11-10T16:09:49.593Z,12.10
2018-11-10T16:12:17.612Z,12.90
2018-11-10T16:14:45.670Z,12.80
2018-11-10T16:17:13.678Z,12.93
2018-11-10T16:19:41.704Z,12.10
2018-11-10T16:22:09.713Z,11.40
2018-11-10T16:24:37.783Z,13.40
2018-11-10T16:27:05.853Z,13.50
2018-11-10T16:29:33.983Z,12.67
2018-11-10T16:32:02.033Z,11.77
2018-11-10T16:34:30.118Z,13.07
2018-11-10T16:36:58.218Z,13.20
2018-11-10T16:39:26.231Z,13.27
2018-11-10T16:41:54.276Z,13.67
2018-11-10T16:44:22.304Z,14.83
2018-11-10T16:46:50.346Z,13.60
2018-11-10T16:49:18.365Z,14.13
2018-11-10T16:51:46.393Z,14.33
2018-11-10T16:54:14.446Z,13.57
2018-11-10T16:56:42.486Z,15.37
2018-11-10T16:59:10.641Z,13.93
2018-11-10T17:01:38.604Z,12.53
2018-11-10T17:04:06.647Z,14.43
2018-11-10T17:06:34.943Z,15.27
2018-11-10T17:09:03.991Z,14.90
2018-11-10T17:11:32.142Z,14.73
2018-11-10T17:14:00.181Z,13.80
2018-11-10T17:17:31.347Z,14.57
2018-11-10T17:20:00.442Z,15.97
2018-11-10T17:22:28.475Z,14.87
2018-11-10T17:24:56.541Z,15.60
2018-11-10T17:27:24.606Z,15.43
2018-11-10T17:29:52.735Z,16.10
2018-11-10T17:32:20.834Z,16.97
2018-11-10T17:34:48.862Z,15.13
2018-11-10T17:37:17.992Z,14.10
2018-11-10T17:39:46.208Z,15.40
2018-11-10T17:42:14.202Z,16.43
2018-11-10T17:44:42.115Z,17.03
2018-11-10T17:47:10.207Z,16.30
2018-11-10T17:49:38.276Z,17.00
2018-11-10T17:52:06.535Z,18.03
2018-11-10T17:54:34.621Z,18.00
2018-11-10T17:57:02.647Z,19.53
2018-11-10T17:59:30.735Z,17.77
2018-11-10T18:01:59.173Z,16.57
2018-11-10T18:04:27.283Z,16.73
2018-11-10T18:06:56.352Z,16.70
2018-11-10T18:09:24.453Z,15.23
2018-11-10T18:11:54.567Z,17.43
2018-11-10T18:14:22.649Z,18.00
2018-11-10T18:16:50.720Z,17.03
2018-11-10T18:19:18.810Z,17.83
2018-11-10T18:21:46.896Z,16.30
2018-11-10T18:24:14.923Z,17.10
2018-11-10T18:26:43.028Z,18.80
2018-11-10T18:29:11.079Z,16.07
2018-11-10T18:31:39.127Z,16.67
2018-11-10T18:34:07.228Z,17.27
2018-11-10T18:36:35.594Z,16.83
2018-11-10T18:39:04.804Z,15.90
2018-11-10T18:41:32.898Z,15.60
2018-11-10T18:44:00.997Z,16.67
2018-11-10T18:46:29.286Z,17.03
2018-11-10T18:48:57.424Z,17.03
2018-11-10T18:51:25.499Z,16.27
2018-11-10T18:53:55.599Z,16.33
2018-11-10T18:56:23.713Z,17.13
2018-11-10T18:58:51.760Z,17.07
2018-11-10T19:01:20.874Z,17.57
2018-11-10T19:03:48.991Z,16.97
2018-11-10T19:06:17.236Z,18.97
2018-11-10T19:08:45.267Z,16.77
2018-11-10T19:12:16.724Z,17.67
2018-11-10T19:14:44.764Z,17.70
2018-11-10T19:17:12.852Z,19.13
2018-11-10T19:19:40.910Z,18.90
2018-11-10T19:22:08.979Z,17.73
2018-11-10T19:26:01.668Z,17.10
2018-11-10T19:28:29.772Z,17.60
2018-11-10T19:30:58.096Z,17.00
2018-11-10T19:33:26.781Z,18.23
2018-11-10T19:35:54.904Z,18.73
2018-11-10T19:38:22.976Z,19.43
2018-11-10T19:40:51.188Z,16.67
2018-11-10T19:43:19.301Z,17.27
2018-11-10T19:45:47.346Z,17.00
2018-11-10T19:48:15.418Z,16.53
2018-11-10T19:50:43.614Z,16.83
2018-11-10T19:53:11.789Z,17.27
2018-11-10T19:55:39.859Z,16.70
2018-11-10T19:58:08.969Z,17.30
2018-11-10T20:00:37.043Z,17.50
2018-11-10T20:03:05.313Z,18.00
2018-11-10T20:05:33.390Z,18.23
2018-11-10T20:08:01.463Z,17.23
2018-11-10T20:10:29.540Z,18.00
2018-11-10T20:12:57.631Z,19.13
2018-11-10T20:15:25.762Z,17.13
2018-11-10T20:17:53.840Z,18.57
2018-11-10T20:20:22.967Z,18.33
2018-11-10T20:22:51.282Z,18.70
2018-11-10T20:25:19.813Z,19.10
2018-11-10T20:27:47.869Z,16.80
2018-11-10T20:30:17.291Z,18.57
2018-11-10T20:32:45.788Z,17.70
2018-11-10T20:35:14.935Z,18.23
2018-11-10T20:37:43.760Z,17.43
2018-11-10T20:40:13.181Z,18.33
2018-11-10T20:42:41.511Z,18.30
2018-11-10T20:45:12.255Z,17.90
2018-11-10T20:47:40.960Z,18.10
2018-11-10T20:52:45.197Z,19.37
2018-11-10T20:55:13.671Z,17.43
2018-11-10T20:57:41.728Z,19.10
2018-11-10T21:00:12.156Z,18.73
2018-11-10T21:02:41.257Z,17.63
2018-11-10T21:05:10.565Z,17.80
2018-11-10T21:07:38.704Z,17.97
2018-11-10T21:10:08.699Z,18.67
2018-11-10T21:12:38.924Z,18.70
2018-11-10T21:15:08.268Z,17.60
2018-11-10T21:17:36.536Z,17.77
2018-11-10T21:20:04.747Z,17.97
2018-11-10T21:22:32.848Z,18.63
2018-11-10T21:25:01.043Z,18.40
2018-11-10T21:27:29.121Z,20.63
2018-11-10T21:29:57.292Z,18.53
2018-11-10T21:32:25.300Z,19.03
2018-11-10T21:34:53.344Z,18.73
2018-11-10T21:37:21.428Z,18.17
2018-11-10T21:39:49.658Z,19.27
2018-11-10T21:42:17.895Z,19.20
2018-11-10T21:44:46.040Z,17.23
2018-11-10T21:47:14.174Z,17.40
2018-11-10T21:49:43.407Z,18.03
2018-11-10T21:52:11.388Z,18.27
2018-11-10T21:58:12.722Z,19.57
2018-11-10T22:00:40.883Z,20.07
2018-11-10T22:03:09.000Z,19.17
2018-11-10T22:05:37.099Z,20.10
2018-11-10T22:08:05.500Z,17.17
2018-11-10T22:10:33.549Z,20.83
2018-11-10T22:13:01.656Z,17.83
2018-11-10T22:15:29.837Z,19.27
2018-11-10T22:17:57.984Z,18.57
2018-11-10T22:20:26.055Z,19.47
2018-11-10T22:22:54.116Z,18.17
2018-11-10T22:25:22.218Z,16.97
2018-11-10T22:27:51.823Z,17.00
2018-11-10T22:30:21.056Z,18.23
2018-11-10T22:32:49.713Z,18.70
2018-11-10T22:35:17.819Z,17.67
2018-11-10T22:37:45.956Z,17.33
2018-11-10T22:40:15.339Z,19.53
2018-11-10T22:42:47.168Z,18.40
2018-11-10T22:45:20.131Z,18.13
2018-11-10T22:47:52.252Z,19.00
2018-11-10T22:50:22.425Z,17.83
2018-11-10T22:52:51.797Z,16.83
2018-11-10T22:55:21.115Z,18.23
2018-11-10T22:57:51.132Z,17.30
2018-11-10T23:00:23.779Z,18.37
2018-11-10T23:03:00.111Z,17.83
2018-11-10T23:06:32.481Z,19.83
2018-11-10T23:09:09.115Z,18.70
2018-11-10T23:11:37.389Z,18.20
2018-11-10T23:14:07.289Z,19.77
2018-11-10T23:16:37.666Z,18.10
2018-11-10T23:19:10.177Z,17.63
2018-11-10T23:21:42.376Z,19.23
2018-11-10T23:24:12.909Z,17.90
2018-11-10T23:26:46.583Z,18.80
2018-11-10T23:29:16.594Z,18.17
2018-11-10T23:31:45.131Z,18.73
2018-11-10T23:34:13.292Z,18.47
2018-11-10T23:36:44.683Z,18.30
2018-11-10T23:39:14.036Z,17.23
2018-11-10T23:41:42.283Z,19.13
2018-11-10T23:44:12.408Z,18.30
2018-11-10T23:46:41.571Z,17.13
2018-11-10T23:49:10.899Z,17.60
2018-11-10T23:51:39.121Z,19.37
2018-11-10T23:54:07.203Z,17.63
2018-11-10T23:56:35.535Z,18.50
2018-11-10T23:59:05.459Z,18.80
